Portada
METAR-TAF:

METAR-TAF

Aeroports :

Arctic Bay, Nunavut, Canadà

latitud: 73-00-23N, longitud: 085-02-50W, altitud: 22 m

Observació

L'informe es va fer fa 16 hores i 41 minuts, a les 07:43 UTC
Vent 3 kt del Oest/Sud-Oest, variant entre Est/Sud-Est i Oest
Temperatura 2°C
Humitat 87%
Pressió 1010 hPa
Visibilitat: 12.9 km
Escasses núvols a una alçada de 1100 ft
Cel cobert a una alçada de 2400 ft
pluja

METAR: CYAB 160743Z 25003KT 110V270 8SM -RA FEW011 OVC024 02/M00 A2982 RMK SF1NS8 SF TR LST STFD OBS/ NXT 171100Z SLP102

Hora: 20:24 (00:24 UTC)


TAF: manca

Observacions i pronòstics meteorològics de més de 4000 aeroports (METAR i TAF).

Les estacions disponibles són els punts grocs i vermells al mapa.

Posi el ratolí al punt desitjat per veure el nom de l'estació.

Feu clic per veure les observacions i els pronòstics meteorològics.

Per canviar el mapa: feu clic els botons verds amb una creu de color negre per apropar; al botó verd amb un guió per allunyar la imatge; o en les fletxes verdes per a mapes adjacents.


METAR-TAF: